Time;durP1;ratioP1;P1;durP2;ratioP2;P2;SDS_P1;SDS_P2;PMS_P1;PMS_P2;Temp;Humidity;BMP_temperature;BMP_pressure;BME280_temperature;BME280_humidity;BME280_pressure;Samples;Min_cycle;Max_cycle;Signal;HPM_P1;HPM_P2
2023/01/08 00:00:50;;;;;;;112.72;13.70;;;;;;;10.34;100.00;97469.81;4955788;28;20460;-53
2023/01/08 00:03:15;;;;;;;97.63;12.73;;;;;;;9.19;100.00;97469.03;4957410;28;20031;-53
2023/01/08 00:05:41;;;;;;;96.65;12.00;;;;;;;9.61;100.00;97463.53;4957541;28;20165;-53
2023/01/08 00:08:07;;;;;;;91.25;12.30;;;;;;;9.73;100.00;97467.75;4958033;28;20765;-52
2023/01/08 00:10:33;;;;;;;78.18;11.95;;;;;;;9.82;100.00;97458.16;4956775;28;20041;-54
2023/01/08 00:12:59;;;;;;;106.88;13.35;;;;;;;9.46;100.00;97454.13;4955863;28;20027;-53
2023/01/08 00:15:24;;;;;;;88.75;14.25;;;;;;;9.23;100.00;97442.19;4956950;28;20049;-53
2023/01/08 00:17:50;;;;;;;91.68;12.60;;;;;;;9.07;100.00;97435.38;4957648;28;20110;-52
2023/01/08 00:20:15;;;;;;;84.15;11.57;;;;;;;9.29;100.00;97438.69;4955656;28;20039;-54
2023/01/08 00:22:41;;;;;;;83.22;12.90;;;;;;;9.22;100.00;97432.69;4957223;28;20026;-53
2023/01/08 00:25:06;;;;;;;94.03;11.02;;;;;;;9.49;100.00;97440.28;4955191;28;20057;-52
2023/01/08 00:27:32;;;;;;;73.97;11.98;;;;;;;9.43;100.00;97429.94;4956519;28;20023;-52
2023/01/08 00:29:57;;;;;;;81.40;13.07;;;;;;;9.48;100.00;97431.63;4955669;28;20113;-52
2023/01/08 00:32:22;;;;;;;70.50;11.63;;;;;;;9.38;100.00;97422.19;4956488;28;20121;-53
2023/01/08 00:34:48;;;;;;;63.08;10.57;;;;;;;9.72;100.00;97413.25;4957647;28;21131;-55
2023/01/08 00:37:17;;;;;;;72.95;11.45;;;;;;;9.68;100.00;97416.78;4956793;28;20050;-52
2023/01/08 00:39:43;;;;;;;86.00;11.50;;;;;;;9.57;100.00;97429.84;4957168;28;20027;-53
2023/01/08 00:42:08;;;;;;;63.60;10.80;;;;;;;9.89;100.00;97432.16;4945956;28;20034;-54
2023/01/08 00:44:34;;;;;;;60.63;10.48;;;;;;;10.05;100.00;97436.34;4955812;28;20110;-54
2023/01/08 00:46:59;;;;;;;60.08;10.88;;;;;;;9.43;100.00;97428.19;4956751;28;20707;-52
2023/01/08 00:49:24;;;;;;;77.10;11.55;;;;;;;9.87;100.00;97417.44;4956619;28;20026;-52
2023/01/08 00:51:50;;;;;;;49.50;9.10;;;;;;;10.11;100.00;97420.66;4955342;28;20054;-52
2023/01/08 00:54:15;;;;;;;63.08;9.55;;;;;;;10.28;100.00;97423.94;4956946;28;20791;-53
2023/01/08 00:56:40;;;;;;;74.07;10.35;;;;;;;10.60;100.00;97418.41;4956274;28;20027;-53
2023/01/08 00:59:06;;;;;;;66.65;11.02;;;;;;;10.85;100.00;97418.94;4955798;28;20767;-55
2023/01/08 01:01:31;;;;;;;101.38;11.45;;;;;;;10.86;100.00;97412.00;4954555;28;20100;-53
2023/01/08 01:03:56;;;;;;;82.22;9.15;;;;;;;11.23;100.00;97415.78;4957100;28;20727;-52
2023/01/08 01:06:22;;;;;;;81.28;11.13;;;;;;;10.62;100.00;97401.06;4956733;28;20050;-52
2023/01/08 01:08:47;;;;;;;93.18;13.50;;;;;;;9.79;100.00;97406.28;4956561;28;20054;-54
2023/01/08 01:11:22;;;;;;;97.60;11.63;;;;;;;9.27;100.00;97404.09;4955007;28;20035;-53
2023/01/08 01:13:48;;;;;;;110.28;13.40;;;;;;;10.21;100.00;97401.47;4953614;28;20064;-54
2023/01/08 01:16:13;;;;;;;79.47;10.68;;;;;;;10.36;100.00;97394.41;4956608;28;20162;-53
2023/01/08 01:18:39;;;;;;;91.88;10.68;;;;;;;10.69;100.00;97394.88;4956404;28;20065;-56
2023/01/08 01:21:25;;;;;;;110.93;12.85;;;;;;;10.84;100.00;97396.41;4955140;28;20073;-56
2023/01/08 01:23:56;;;;;;;107.93;14.15;;;;;;;10.86;100.00;97398.97;4955953;28;20026;-54
2023/01/08 01:26:22;;;;;;;105.38;12.93;;;;;;;10.89;100.00;97404.16;4956526;28;20121;-54
2023/01/08 01:28:50;;;;;;;110.50;12.02;;;;;;;10.94;100.00;97405.81;4953835;28;20056;-54
2023/01/08 01:31:16;;;;;;;95.78;13.40;;;;;;;10.43;100.00;97414.22;4953815;28;20078;-55
2023/01/08 01:33:43;;;;;;;77.85;10.32;;;;;;;10.32;100.00;97413.50;4957196;28;20081;-57
2023/01/08 01:36:10;;;;;;;81.80;11.38;;;;;;;10.34;100.00;97412.63;4955933;28;20031;-56
2023/01/08 01:38:36;;;;;;;91.40;11.80;;;;;;;10.30;100.00;97408.34;4956174;28;20089;-55
2023/01/08 01:41:01;;;;;;;124.82;13.48;;;;;;;10.22;100.00;97405.81;4954680;28;20042;-55
2023/01/08 01:43:39;;;;;;;72.22;9.40;;;;;;;10.23;100.00;97398.88;4954470;28;20041;-54
2023/01/08 01:46:28;;;;;;;84.10;11.48;;;;;;;10.08;100.00;97397.31;4955143;28;20039;-54
2023/01/08 01:49:00;;;;;;;87.75;11.93;;;;;;;10.18;100.00;97396.34;4955926;28;20453;-53
2023/01/08 01:51:31;;;;;;;93.25;14.30;;;;;;;9.78;100.00;97392.41;4954784;28;20110;-52
2023/01/08 01:53:57;;;;;;;68.03;12.18;;;;;;;9.07;100.00;97388.69;4956189;28;20031;-54
2023/01/08 01:56:23;;;;;;;91.78;12.77;;;;;;;8.99;100.00;97393.94;4955210;28;20031;-53
2023/01/08 01:58:48;;;;;;;83.20;11.35;;;;;;;9.66;100.00;97388.22;4953830;28;20034;-52
2023/01/08 02:01:14;;;;;;;72.82;8.77;;;;;;;10.05;100.00;97389.56;4954600;28;20182;-52
2023/01/08 02:03:39;;;;;;;66.28;8.40;;;;;;;10.33;100.00;97390.09;4956343;28;21291;-53
2023/01/08 02:06:14;;;;;;;75.57;11.00;;;;;;;10.21;100.00;97383.28;4955528;28;20086;-52
2023/01/08 02:09:01;;;;;;;76.53;11.25;;;;;;;10.61;100.00;97379.38;4955996;28;20528;-53
2023/01/08 02:11:45;;;;;;;106.32;13.95;;;;;;;10.64;100.00;97378.47;4953809;28;20050;-52
2023/01/08 02:14:15;;;;;;;76.40;9.80;;;;;;;10.72;100.00;97381.84;4954957;28;20026;-52
2023/01/08 02:16:49;;;;;;;51.35;8.73;;;;;;;10.22;100.00;97377.25;4957035;28;20034;-52
2023/01/08 02:19:39;;;;;;;69.15;11.15;;;;;;;8.31;100.00;97379.53;4954764;28;20031;-53
2023/01/08 02:22:22;;;;;;;72.68;12.05;;;;;;;7.08;100.00;97367.69;4957508;28;20935;-54
2023/01/08 02:24:57;;;;;;;86.13;13.40;;;;;;;5.53;100.00;97361.06;4957435;28;20070;-53
2023/01/08 02:27:26;;;;;;;80.72;13.40;;;;;;;5.12;100.00;97359.06;4956895;28;20500;-53
2023/01/08 02:29:53;;;;;;;102.35;14.57;;;;;;;4.64;100.00;97362.06;4957203;28;20039;-53
2023/01/08 02:32:24;;;;;;;76.78;12.70;;;;;;;4.55;100.00;97371.41;4957669;28;20039;-55
2023/01/08 02:34:50;;;;;;;85.63;13.45;;;;;;;4.68;100.00;97363.81;4957619;28;20031;-53
2023/01/08 02:37:15;;;;;;;73.82;12.10;;;;;;;4.63;100.00;97366.34;4957781;28;20050;-54
2023/01/08 02:40:05;;;;;;;120.05;14.60;;;;;;;4.16;100.00;97370.13;4957443;28;20613;-53
2023/01/08 02:42:39;;;;;;;71.18;11.48;;;;;;;3.92;100.00;97361.22;4958424;28;20145;-55
2023/01/08 02:45:17;;;;;;;68.63;11.40;;;;;;;3.77;100.00;97356.75;4961918;28;20038;-55
2023/01/08 02:47:50;;;;;;;88.43;12.75;;;;;;;3.66;100.00;97364.31;4962426;28;20043;-56
2023/01/08 02:50:34;;;;;;;78.45;12.57;;;;;;;3.54;100.00;97362.44;4960375;28;20041;-53
2023/01/08 02:53:10;;;;;;;80.57;12.30;;;;;;;3.41;100.00;97357.97;4961012;28;20714;-55
2023/01/08 02:55:39;;;;;;;70.25;11.70;;;;;;;3.42;100.00;97347.72;4961563;28;20899;-55
2023/01/08 02:58:05;;;;;;;77.25;11.50;;;;;;;3.61;100.00;97356.53;4961444;28;20489;-53
2023/01/08 03:00:31;;;;;;;77.70;11.07;;;;;;;3.57;100.00;97356.47;4960874;28;20054;-53
2023/01/08 03:03:11;;;;;;;71.40;11.45;;;;;;;3.49;100.00;97356.38;4961502;28;20146;-54
2023/01/08 03:05:39;;;;;;;73.65;11.60;;;;;;;3.31;100.00;97354.38;4961469;28;20269;-53
2023/01/08 03:08:05;;;;;;;81.72;11.75;;;;;;;3.15;100.00;97349.00;4961879;28;20117;-54
2023/01/08 03:10:31;;;;;;;76.68;10.90;;;;;;;2.78;100.00;97350.97;4960643;28;20211;-52
2023/01/08 03:13:08;;;;;;;77.38;12.40;;;;;;;2.63;100.00;97349.84;4961201;28;20031;-52
2023/01/08 03:15:45;;;;;;;83.95;12.52;;;;;;;2.73;100.00;97356.88;4961761;28;20046;-55
2023/01/08 03:18:15;;;;;;;77.78;12.32;;;;;;;2.79;100.00;97362.97;4959049;28;20137;-53
2023/01/08 03:20:41;;;;;;;80.75;12.50;;;;;;;2.95;100.00;97362.38;4960368;28;20038;-53
2023/01/08 03:23:09;;;;;;;82.63;11.75;;;;;;;2.80;100.00;97359.56;4960439;28;20133;-52
2023/01/08 03:25:39;;;;;;;69.72;12.73;;;;;;;2.64;100.00;97346.47;4961178;28;20126;-54
2023/01/08 03:28:08;;;;;;;82.72;12.80;;;;;;;2.83;100.00;97351.91;4961347;28;20023;-56
2023/01/08 03:30:38;;;;;;;71.55;12.10;;;;;;;2.76;100.00;97344.91;4959962;28;20042;-55
2023/01/08 03:33:06;;;;;;;69.55;12.25;;;;;;;2.86;100.00;97336.56;4961347;28;20022;-55
2023/01/08 03:35:33;;;;;;;85.30;12.98;;;;;;;3.15;100.00;97343.84;4960869;28;20122;-53
2023/01/08 03:38:09;;;;;;;64.65;11.27;;;;;;;3.03;100.00;97325.66;4962016;28;20031;-54
2023/01/08 03:40:41;;;;;;;81.40;13.00;;;;;;;3.01;100.00;97322.22;4959441;28;20759;-56
2023/01/08 03:43:07;;;;;;;62.47;11.43;;;;;;;2.88;100.00;97329.72;4961049;28;20043;-53
2023/01/08 03:45:35;;;;;;;89.85;13.40;;;;;;;2.80;100.00;97319.34;4960814;28;20042;-55
2023/01/08 03:48:03;;;;;;;71.72;12.30;;;;;;;2.78;100.00;97313.28;4961495;28;20058;-54
2023/01/08 03:50:30;;;;;;;84.20;13.15;;;;;;;2.80;100.00;97315.88;4959376;28;20046;-53
2023/01/08 03:52:55;;;;;;;75.45;12.35;;;;;;;2.85;100.00;97301.41;4960479;28;20113;-54
2023/01/08 03:55:21;;;;;;;74.65;13.45;;;;;;;2.80;100.00;97292.78;4960211;28;20061;-53
2023/01/08 03:57:47;;;;;;;84.53;12.93;;;;;;;2.83;100.00;97295.41;4960996;28;20054;-53
2023/01/08 04:00:12;;;;;;;75.32;12.90;;;;;;;2.81;100.00;97289.34;4959778;28;20038;-52
2023/01/08 04:02:38;;;;;;;87.38;13.93;;;;;;;2.81;100.00;97281.66;4959047;28;20061;-53
2023/01/08 04:05:04;;;;;;;57.70;11.05;;;;;;;2.97;100.00;97275.91;4960557;28;20038;-53
2023/01/08 04:07:29;;;;;;;74.32;11.55;;;;;;;2.90;100.00;97273.25;4960835;28;20452;-54
2023/01/08 04:09:54;;;;;;;92.97;12.77;;;;;;;3.05;100.00;97267.47;4959931;28;20168;-55
2023/01/08 04:12:20;;;;;;;80.57;12.27;;;;;;;3.02;100.00;97267.44;4960764;28;20070;-53
2023/01/08 04:14:45;;;;;;;90.93;13.20;;;;;;;2.90;100.00;97257.84;4960689;28;20027;-54
2023/01/08 04:17:11;;;;;;;87.78;12.32;;;;;;;2.91;100.00;97257.88;4960225;28;20030;-53
2023/01/08 04:19:36;;;;;;;79.38;11.80;;;;;;;3.17;100.00;97254.81;4960207;28;20066;-53
2023/01/08 04:22:01;;;;;;;88.75;13.63;;;;;;;3.28;100.00;97254.09;4959027;28;20119;-53
2023/01/08 04:24:27;;;;;;;64.70;11.60;;;;;;;3.41;100.00;97250.84;4960676;28;20041;-55
2023/01/08 04:26:52;;;;;;;101.82;13.45;;;;;;;3.47;100.00;97255.19;4959830;28;20544;-55
2023/01/08 04:29:17;;;;;;;75.50;12.00;;;;;;;3.63;100.00;97256.25;4960029;28;20434;-54
2023/01/08 04:31:43;;;;;;;70.95;11.98;;;;;;;3.83;100.00;97255.66;4958786;28;21827;-55
2023/01/08 04:34:09;;;;;;;73.93;11.93;;;;;;;3.85;100.00;97265.09;4960190;28;20108;-56
2023/01/08 04:36:34;;;;;;;67.97;11.48;;;;;;;3.74;100.00;97271.81;4959702;28;20050;-54
2023/01/08 04:39:00;;;;;;;86.40;12.45;;;;;;;3.59;100.00;97272.50;4960505;28;20078;-54
2023/01/08 04:41:25;;;;;;;74.95;11.70;;;;;;;3.64;100.00;97276.00;4958424;28;20127;-55
2023/01/08 04:43:50;;;;;;;69.18;12.10;;;;;;;3.38;100.00;97271.38;4960650;28;20018;-54
2023/01/08 04:46:16;;;;;;;97.93;13.18;;;;;;;3.38;100.00;97272.22;4959502;28;20045;-55
2023/01/08 04:48:41;;;;;;;78.05;12.50;;;;;;;3.24;100.00;97266.88;4960098;28;20496;-55
2023/01/08 04:51:07;;;;;;;105.10;13.13;;;;;;;3.25;100.00;97268.63;4958980;28;20130;-55
2023/01/08 04:53:35;;;;;;;81.70;12.25;;;;;;;3.06;100.00;97270.06;4959869;28;20066;-56
2023/01/08 04:56:09;;;;;;;66.75;11.20;;;;;;;3.19;100.00;97265.13;4955105;28;20041;-53
2023/01/08 04:58:35;;;;;;;73.97;11.50;;;;;;;3.35;100.00;97272.19;4959568;28;20042;-52
2023/01/08 05:01:08;;;;;;;89.53;12.10;;;;;;;3.42;100.00;97262.00;4958241;28;20030;-54
2023/01/08 05:03:34;;;;;;;81.28;11.50;;;;;;;3.29;100.00;97258.38;4959777;28;20043;-55
2023/01/08 05:05:59;;;;;;;65.75;10.85;;;;;;;3.42;100.00;97257.72;4958954;28;20039;-54
2023/01/08 05:08:25;;;;;;;92.72;13.32;;;;;;;3.32;100.00;97250.72;4959576;28;20038;-53
2023/01/08 05:10:50;;;;;;;79.05;11.77;;;;;;;3.29;100.00;97256.69;4958564;28;20049;-52
2023/01/08 05:13:15;;;;;;;70.65;11.18;;;;;;;3.44;100.00;97256.03;4959283;28;20018;-52
2023/01/08 05:15:41;;;;;;;78.40;11.70;;;;;;;3.35;100.00;97255.91;4959208;28;20648;-52
2023/01/08 05:18:06;;;;;;;67.97;11.95;;;;;;;3.52;100.00;97253.53;4959864;28;20290;-53
2023/01/08 05:20:33;;;;;;;92.22;12.07;;;;;;;3.59;100.00;97244.19;4957992;28;20043;-52
2023/01/08 05:22:58;;;;;;;67.43;10.85;;;;;;;3.65;100.00;97239.16;4958784;28;20023;-52
2023/01/08 05:25:24;;;;;;;76.18;11.73;;;;;;;3.41;100.00;97245.69;4959038;28;20042;-53
2023/01/08 05:27:49;;;;;;;86.47;11.75;;;;;;;3.27;100.00;97242.09;4959161;28;20058;-53
2023/01/08 05:30:15;;;;;;;68.32;11.43;;;;;;;2.89;100.00;97241.53;4958621;28;20109;-53
2023/01/08 05:32:41;;;;;;;94.30;12.85;;;;;;;2.92;100.00;97239.03;4958548;28;20085;-53
2023/01/08 05:35:06;;;;;;;74.72;12.98;;;;;;;2.71;100.00;97237.84;4958806;28;20125;-53
2023/01/08 05:37:36;;;;;;;78.38;13.00;;;;;;;2.88;100.00;97231.25;4959456;28;20061;-52
2023/01/08 05:40:03;;;;;;;70.95;12.32;;;;;;;2.64;100.00;97233.47;4958733;28;20026;-52
2023/01/08 05:42:28;;;;;;;78.90;13.73;;;;;;;2.63;100.00;97236.03;4958131;28;20065;-53
2023/01/08 05:44:54;;;;;;;104.82;14.07;;;;;;;2.86;100.00;97238.94;4958887;28;20041;-52
2023/01/08 05:47:19;;;;;;;85.13;13.50;;;;;;;2.80;100.00;97242.28;4958804;28;20042;-55
2023/01/08 05:49:44;;;;;;;107.72;14.90;;;;;;;2.90;100.00;97248.44;4958852;28;20098;-52
2023/01/08 05:52:10;;;;;;;70.10;11.60;;;;;;;2.77;100.00;97241.34;4957764;28;20035;-52
2023/01/08 05:54:35;;;;;;;70.65;12.50;;;;;;;2.75;100.00;97230.22;4959252;28;20050;-55
2023/01/08 05:57:00;;;;;;;84.00;13.77;;;;;;;2.57;100.00;97234.22;4958514;28;20504;-53
2023/01/08 05:59:26;;;;;;;59.15;11.20;;;;;;;2.62;100.00;97237.72;4959559;28;20086;-53
2023/01/08 06:01:51;;;;;;;75.72;12.35;;;;;;;2.77;100.00;97242.22;4957783;28;20038;-53
2023/01/08 06:04:16;;;;;;;63.70;12.27;;;;;;;2.73;100.00;97240.44;4959076;28;20111;-52
2023/01/08 06:06:42;;;;;;;70.82;11.85;;;;;;;2.83;100.00;97236.31;4958926;28;20043;-53
2023/01/08 06:09:08;;;;;;;70.65;12.38;;;;;;;2.96;100.00;97243.38;4959268;28;20037;-52
2023/01/08 06:11:33;;;;;;;68.00;12.32;;;;;;;2.99;100.00;97230.59;4957887;28;20049;-53
2023/01/08 06:13:58;;;;;;;58.22;11.65;;;;;;;3.04;100.00;97229.78;4959440;28;20059;-53
2023/01/08 06:16:24;;;;;;;80.03;12.40;;;;;;;3.20;100.00;97230.88;4958240;28;20053;-53
2023/01/08 06:18:49;;;;;;;81.95;12.77;;;;;;;2.92;100.00;97226.19;4962294;28;20019;-55
2023/01/08 06:21:14;;;;;;;75.15;11.02;;;;;;;2.82;100.00;97219.19;4961805;28;20141;-54
2023/01/08 06:23:40;;;;;;;70.10;13.25;;;;;;;2.71;100.00;97219.03;4962760;28;20034;-53
2023/01/08 06:26:05;;;;;;;69.32;13.00;;;;;;;2.60;100.00;97209.44;4960309;28;20034;-54
2023/01/08 06:28:31;;;;;;;76.22;13.35;;;;;;;2.77;100.00;97213.97;4961732;28;20740;-53
2023/01/08 06:30:58;;;;;;;83.10;13.45;;;;;;;2.84;100.00;97202.97;4960555;28;20047;-56
2023/01/08 06:33:24;;;;;;;90.97;14.25;;;;;;;2.66;100.00;97200.97;4962202;28;20990;-52
2023/01/08 06:35:49;;;;;;;72.53;14.15;;;;;;;2.76;100.00;97198.53;4962341;28;20130;-53
2023/01/08 06:38:17;;;;;;;64.28;12.63;;;;;;;2.88;100.00;97205.56;4962658;28;20095;-52
2023/01/08 06:40:43;;;;;;;62.05;13.05;;;;;;;3.02;100.00;97200.63;4961093;28;20110;-53
2023/01/08 06:43:08;;;;;;;69.38;13.57;;;;;;;3.13;100.00;97212.78;4962145;28;20065;-52
2023/01/08 06:45:33;;;;;;;89.18;14.15;;;;;;;3.20;100.00;97220.59;4961879;28;20041;-53
2023/01/08 06:48:01;;;;;;;74.22;12.88;;;;;;;3.06;100.00;97216.13;4962507;28;20093;-53
2023/01/08 06:50:27;;;;;;;65.75;13.05;;;;;;;3.07;100.00;97215.28;4961049;28;20261;-53
2023/01/08 06:52:54;;;;;;;74.13;13.27;;;;;;;3.25;100.00;97214.66;4961204;28;20048;-52
2023/01/08 06:55:20;;;;;;;73.70;13.02;;;;;;;3.17;100.00;97216.28;4961796;28;20409;-53
2023/01/08 06:57:46;;;;;;;80.82;13.48;;;;;;;3.31;100.00;97220.72;4961730;28;20027;-52
2023/01/08 07:00:12;;;;;;;71.90;13.18;;;;;;;3.30;100.00;97221.56;4960946;28;20323;-52
2023/01/08 07:02:37;;;;;;;77.75;13.18;;;;;;;3.24;100.00;97220.63;4954799;28;20043;-53
2023/01/08 07:05:03;;;;;;;73.78;14.45;;;;;;;3.28;100.00;97216.41;4962031;28;20023;-54
2023/01/08 07:07:28;;;;;;;71.82;13.77;;;;;;;3.24;100.00;97207.78;4961922;28;20052;-55
2023/01/08 07:09:54;;;;;;;104.65;15.15;;;;;;;3.15;100.00;97209.38;4960953;28;20105;-52
2023/01/08 07:12:19;;;;;;;71.80;11.13;;;;;;;3.06;100.00;97218.69;4961253;28;20126;-52
2023/01/08 07:14:44;;;;;;;53.22;12.63;;;;;;;3.29;100.00;97230.09;4960832;28;20674;-52
2023/01/08 07:17:10;;;;;;;75.30;13.80;;;;;;;3.55;100.00;97232.16;4961744;28;21243;-53
2023/01/08 07:19:35;;;;;;;67.80;12.38;;;;;;;3.95;100.00;97231.75;4961536;28;20077;-52
2023/01/08 07:22:01;;;;;;;76.10;15.10;;;;;;;3.96;100.00;97218.03;4960954;28;20045;-52
2023/01/08 07:24:26;;;;;;;76.32;15.07;;;;;;;4.08;100.00;97220.75;4961730;28;20088;-52
2023/01/08 07:26:51;;;;;;;72.20;14.60;;;;;;;4.24;100.00;97226.94;4961355;28;20548;-53
2023/01/08 07:29:17;;;;;;;67.38;15.30;;;;;;;4.23;100.00;97212.31;4960640;28;20042;-54
2023/01/08 07:31:42;;;;;;;72.82;14.57;;;;;;;4.34;100.00;97209.81;4960607;28;20082;-53
2023/01/08 07:34:07;;;;;;;80.70;14.68;;;;;;;4.41;100.00;97218.47;4961535;28;20065;-53
2023/01/08 07:36:33;;;;;;;81.30;14.50;;;;;;;4.45;100.00;97214.22;4960981;28;20042;-52
2023/01/08 07:38:58;;;;;;;74.00;14.73;;;;;;;4.13;100.00;97210.50;4961424;28;20034;-52
2023/01/08 07:41:23;;;;;;;71.53;12.75;;;;;;;4.36;100.00;97213.28;4959848;28;20031;-55
2023/01/08 07:43:49;;;;;;;75.57;14.07;;;;;;;4.49;100.00;97221.97;4961899;28;20034;-53
2023/01/08 07:46:15;;;;;;;81.85;13.98;;;;;;;4.49;100.00;97218.56;4960975;28;20097;-52
2023/01/08 07:48:40;;;;;;;59.30;12.50;;;;;;;4.63;100.00;97216.06;4961622;28;20042;-53
2023/01/08 07:51:07;;;;;;;79.47;14.05;;;;;;;4.77;100.00;97217.06;4959639;28;20066;-54
2023/01/08 07:53:33;;;;;;;82.45;14.43;;;;;;;4.86;100.00;97203.38;4960804;28;20034;-52
2023/01/08 07:56:07;;;;;;;82.45;14.15;;;;;;;5.04;100.00;97210.34;4960518;28;20042;-52
2023/01/08 07:58:33;;;;;;;78.03;13.18;;;;;;;5.16;100.00;97217.28;4960793;28;20110;-56
2023/01/08 08:00:58;;;;;;;77.68;12.82;;;;;;;5.20;100.00;97218.19;4959575;28;20609;-54
2023/01/08 08:03:24;;;;;;;70.13;13.40;;;;;;;5.23;100.00;97215.59;4954328;28;20035;-53
2023/01/08 08:05:50;;;;;;;55.22;13.05;;;;;;;5.41;100.00;97217.44;4962516;28;20097;-54
2023/01/08 08:08:16;;;;;;;64.20;13.30;;;;;;;5.47;100.00;97220.03;4960979;28;20039;-52
2023/01/08 08:10:41;;;;;;;72.38;13.65;;;;;;;5.69;100.00;97216.69;4961682;28;20046;-54
2023/01/08 08:13:07;;;;;;;50.67;12.40;;;;;;;5.71;100.00;97230.44;4962415;28;20089;-54
2023/01/08 08:15:34;;;;;;;66.63;12.82;;;;;;;5.86;100.00;97238.25;4962098;28;20509;-52
2023/01/08 08:17:59;;;;;;;52.28;13.00;;;;;;;5.62;100.00;97230.41;4963078;28;20030;-52
2023/01/08 08:20:25;;;;;;;47.53;12.48;;;;;;;5.28;100.00;97219.09;4963028;28;20023;-55
2023/01/08 08:22:51;;;;;;;75.15;17.73;;;;;;;5.19;100.00;97226.75;4962448;28;20022;-54
2023/01/08 08:25:17;;;;;;;60.42;14.32;;;;;;;5.59;100.00;97226.09;4962065;28;20030;-55
2023/01/08 08:27:43;;;;;;;72.28;15.60;;;;;;;5.55;100.00;97220.09;4962680;28;20628;-53
2023/01/08 08:30:10;;;;;;;70.18;14.35;;;;;;;5.59;100.00;97239.00;4959058;28;20022;-56
2023/01/08 08:32:36;;;;;;;66.93;15.80;;;;;;;5.75;100.00;97231.34;4961990;28;20093;-54
2023/01/08 08:35:01;;;;;;;64.00;14.48;;;;;;;6.12;100.00;97241.78;4962201;28;20504;-53
2023/01/08 08:37:27;;;;;;;61.13;14.57;;;;;;;5.96;100.00;97238.28;4961692;28;20066;-53
2023/01/08 08:39:52;;;;;;;81.47;16.40;;;;;;;5.42;100.00;97221.72;4961205;28;20160;-55
2023/01/08 08:42:17;;;;;;;54.55;14.00;;;;;;;5.67;100.00;97221.84;4961110;28;20045;-54
2023/01/08 08:44:43;;;;;;;51.85;14.35;;;;;;;5.97;100.00;97225.38;4962188;28;20065;-54
2023/01/08 08:47:09;;;;;;;69.22;15.57;;;;;;;6.06;100.00;97234.03;4961741;28;20034;-57
2023/01/08 08:49:35;;;;;;;58.70;15.23;;;;;;;6.12;100.00;97228.88;4961541;28;20037;-56
2023/01/08 08:52:01;;;;;;;74.38;16.80;;;;;;;6.14;100.00;97216.84;4961021;28;20035;-53
2023/01/08 08:54:26;;;;;;;65.45;17.15;;;;;;;6.23;100.00;97228.91;4961853;28;20062;-56
2023/01/08 08:56:51;;;;;;;57.78;16.23;;;;;;;6.39;100.00;97229.81;4961537;28;20054;-54
2023/01/08 08:59:17;;;;;;;75.13;16.23;;;;;;;6.06;100.00;97227.16;4961459;28;20030;-56
2023/01/08 09:01:42;;;;;;;61.95;16.15;;;;;;;6.43;100.00;97225.50;4960500;28;20158;-54
2023/01/08 09:04:07;;;;;;;77.00;17.33;;;;;;;6.80;100.00;97220.34;4961977;28;20122;-55
2023/01/08 09:06:33;;;;;;;57.70;16.15;;;;;;;6.61;100.00;97215.16;4961284;28;20149;-55
2023/01/08 09:08:59;;;;;;;63.60;16.42;;;;;;;6.82;100.00;97203.09;4961624;28;20031;-54
2023/01/08 09:11:24;;;;;;;73.07;14.63;;;;;;;5.98;100.00;97198.69;4959744;28;20693;-53
2023/01/08 09:13:50;;;;;;;58.05;15.23;;;;;;;6.40;100.00;97199.66;4961777;28;20488;-53
2023/01/08 09:16:15;;;;;;;65.38;15.07;;;;;;;6.87;100.00;97205.69;4961013;28;20039;-53
2023/01/08 09:18:41;;;;;;;59.63;14.93;;;;;;;7.13;100.00;97208.22;4961537;28;20019;-54
2023/01/08 09:21:07;;;;;;;80.30;15.43;;;;;;;7.16;100.00;97207.34;4960057;28;20038;-53
2023/01/08 09:23:33;;;;;;;64.60;13.93;;;;;;;7.35;100.00;97212.50;4961369;28;20806;-53
2023/01/08 09:26:03;;;;;;;59.30;14.35;;;;;;;7.21;100.00;97203.03;4960750;28;20035;-53
2023/01/08 09:28:29;;;;;;;63.75;11.35;;;;;;;7.12;100.00;97205.63;4961752;28;20050;-55
2023/01/08 09:30:54;;;;;;;63.65;15.05;;;;;;;7.25;100.00;97206.47;4959908;28;20122;-53
2023/01/08 09:33:20;;;;;;;62.70;15.85;;;;;;;6.85;100.00;97192.75;4961324;28;20058;-56
2023/01/08 09:35:45;;;;;;;65.25;15.32;;;;;;;6.92;100.00;97205.66;4960597;28;20035;-53
2023/01/08 09:38:10;;;;;;;63.65;16.58;;;;;;;7.54;100.00;97210.69;4961571;28;20034;-54
2023/01/08 09:41:00;;;;;;;83.20;16.83;;;;;;;7.43;100.00;97210.75;4959610;28;20121;-53
2023/01/08 09:43:29;;;;;;;57.30;15.80;;;;;;;8.06;100.00;97204.38;4961371;28;20038;-53
2023/01/08 09:45:58;;;;;;;64.95;15.27;;;;;;;8.12;100.00;97221.63;4956235;28;20077;-56
2023/01/08 09:48:28;;;;;;;62.60;15.45;;;;;;;8.27;100.00;97217.22;4960814;28;20061;-54
2023/01/08 09:50:54;;;;;;;76.07;15.98;;;;;;;8.27;100.00;97209.44;4948809;28;20404;-53
2023/01/08 09:53:20;;;;;;;59.78;14.88;;;;;;;8.16;100.00;97202.59;4961131;28;20031;-56
2023/01/08 09:55:54;;;;;;;70.78;15.35;;;;;;;8.83;100.00;97201.25;4960384;28;20429;-54
2023/01/08 09:58:34;;;;;;;57.30;15.57;;;;;;;8.73;100.00;97192.72;4962119;28;20031;-54
2023/01/08 10:01:01;;;;;;;76.65;15.75;;;;;;;9.05;100.00;97204.53;4959109;28;20035;-54
2023/01/08 10:03:30;;;;;;;64.00;17.40;;;;;;;8.79;100.00;97189.19;4960626;28;20031;-56
2023/01/08 10:05:56;;;;;;;69.78;19.77;;;;;;;8.44;100.00;97194.66;4960095;28;20173;-53
2023/01/08 10:08:21;;;;;;;73.28;20.45;;;;;;;8.09;100.00;97177.59;4961599;28;20034;-54
2023/01/08 10:10:47;;;;;;;71.72;20.35;;;;;;;8.33;100.00;97181.78;4959694;28;20126;-54
2023/01/08 10:13:13;;;;;;;79.85;19.80;;;;;;;8.36;100.00;97183.50;4958769;28;20045;-54
2023/01/08 10:15:40;;;;;;;71.78;19.75;;;;;;;8.35;100.00;97184.34;4957753;28;20050;-56
2023/01/08 10:18:10;;;;;;;66.80;19.27;;;;;;;8.24;100.00;97181.81;4960031;28;20073;-55
2023/01/08 10:20:38;;;;;;;70.93;19.38;;;;;;;8.47;100.00;97178.22;4958892;28;20089;-54
2023/01/08 10:23:12;;;;;;;63.03;19.63;;;;;;;8.33;100.00;97171.41;4960045;28;20729;-54
2023/01/08 10:25:56;;;;;;;55.80;14.13;;;;;;;8.54;100.00;97187.69;4959817;28;20042;-53
2023/01/08 10:28:23;;;;;;;74.20;16.70;;;;;;;8.56;100.00;97166.94;4960326;28;20122;-54
2023/01/08 10:30:51;;;;;;;51.08;11.35;;;;;;;8.72;100.00;97168.53;4958860;28;20039;-53
2023/01/08 10:33:27;;;;;;;68.60;12.50;;;;;;;8.58;100.00;97153.09;4961150;28;20034;-54
2023/01/08 10:36:02;;;;;;;72.72;10.68;;;;;;;8.85;100.00;97143.34;4957352;28;20050;-56
2023/01/08 10:38:32;;;;;;;61.95;9.15;;;;;;;8.95;100.00;97136.31;4956297;28;20437;-55
2023/01/08 10:40:59;;;;;;;48.08;8.73;;;;;;;9.06;100.00;97132.75;4957669;28;20039;-53
2023/01/08 10:43:41;;;;;;;56.35;9.18;;;;;;;9.29;100.00;97135.09;4960194;28;20126;-54
2023/01/08 10:46:19;;;;;;;30.67;7.10;;;;;;;9.02;100.00;97129.31;4959967;28;20114;-56
2023/01/08 10:48:49;;;;;;;47.42;7.70;;;;;;;8.89;100.00;97133.78;4958569;28;20587;-54
2023/01/08 10:51:16;;;;;;;40.42;7.00;;;;;;;8.78;100.00;97130.44;4956260;28;20066;-54
2023/01/08 10:53:43;;;;;;;48.20;8.30;;;;;;;8.80;100.00;97134.75;4957398;28;20038;-55
2023/01/08 10:56:19;;;;;;;43.58;6.75;;;;;;;8.71;100.00;97132.25;4957744;28;20126;-53
2023/01/08 10:58:44;;;;;;;67.13;10.18;;;;;;;8.62;100.00;97133.19;4957201;28;20135;-54
2023/01/08 11:01:15;;;;;;;60.45;9.10;;;;;;;8.83;100.00;97133.84;4956742;28;20031;-58
2023/01/08 11:03:41;;;;;;;54.83;8.30;;;;;;;8.96;100.00;97135.47;4959650;28;20027;-56
2023/01/08 11:06:12;;;;;;;47.97;8.68;;;;;;;8.68;100.00;97127.94;4962375;28;20035;-57
2023/01/08 11:08:38;;;;;;;42.22;6.93;;;;;;;8.70;100.00;97131.41;4963119;28;20031;-54
2023/01/08 11:11:07;;;;;;;60.25;8.95;;;;;;;8.52;100.00;97132.38;4962451;28;20063;-53
2023/01/08 11:13:32;;;;;;;75.53;10.32;;;;;;;8.45;100.00;97126.41;4953142;28;20026;-53
2023/01/08 11:16:03;;;;;;;90.18;12.23;;;;;;;8.31;100.00;97107.50;4957442;28;20065;-57
2023/01/08 11:18:29;;;;;;;65.68;10.02;;;;;;;8.37;100.00;97106.59;4959288;28;20117;-53